Terminal Aerodrome Forecast
Issued by NWS Green Bay, WI

Home | Current Version | Previous Version | Graphics & Text | Print | Product List | Glossary On
Versions: 1 2 3 4 5 6 7 8 9 10 11 12 13 14 15 16 17 18 19 20 21 22 23 24 25 26
000
FTUS43 KGRB 150401 AAA
TAFGRB
TAF AMD
KGRB 150401Z 1504/1524 24005KT P6SM -SHSN OVC035
      TEMPO 1504/1508 3SM -SHSN BKN025
     FM150800 24006KT 4SM -SHSN OVC035
     FM151000 28008KT P6SM -SHSN BKN030
     FM151600 28011KT P6SM -SHSN BKN035=

USA.gov is the U.S. government's official web portal to all federal, state and local government web resources and services.